Aviosuperficie Prealpi-Musinè

IT-0058 · Piëmont, Italië

METAR historie IT-0058 · Aviosuperficie Prealpi-Musinè

Hieronder zie je METAR's van de afgelopen dagen. Kies een jaar om door oudere METAR's te bladeren, vanaf het jaar 2007.

23 april 2024

Tijd Code Weer Temp. Zicht Plafond Wind METAR/SPECI
05:20
M
5 °C 10 km+ 2.500 ft Var Var 2 kt METAR LIMF 230320Z VRB02KT 9999 -RA OVC025 05/04 Q1010
04:50
M
5 °C 10 km+ 2.000 ft 350° 350° 3 kt METAR LIMF 230250Z 35003KT 9999 -RA OVC020 05/04 Q1010
04:20
M
5 °C 10 km+ 2.000 ft 340° 340° 3 kt METAR LIMF 230220Z 34003KT 9999 -RA OVC020 05/04 Q1011
03:50
M
5 °C 10 km+ 2.000 ft 360° 360° 3 kt METAR LIMF 230150Z 36003KT 330V030 9999 -RA OVC020 05/04 Q1011
03:20
M
5 °C 10 km+ 2.000 ft 350° 350° 3 kt METAR LIMF 230120Z 35003KT 9999 -RA OVC020 05/04 Q1011
02:50
M
5 °C 10 km+ 2.000 ft 290° 290° 3 kt METAR LIMF 230050Z 29003KT 9999 -PLSNSG OVC020 05/04 Q1011
02:20
M
5 °C 10 km+ 2.000 ft Var Var 2 kt METAR LIMF 230020Z VRB02KT 9999 -RA OVC020 05/04 Q1011
01:50
M
5 °C 10 km+ 2.000 ft Var Var 1 kt METAR LIMF 222350Z VRB01KT 9999 -RA OVC020 05/04 Q1012
01:20
M
5 °C 10 km+ 2.000 ft Var Var 2 kt METAR LIMF 222320Z VRB02KT 9999 -RA OVC020 05/05 Q1012
00:50
M
6 °C 10 km+ 2.000 ft Var Var 2 kt METAR LIMF 222250Z VRB02KT 9999 -RA OVC020 06/05 Q1012
00:20
M
5 °C 10 km+ 3.000 ft Var Var 1 kt METAR LIMF 222220Z VRB01KT 9999 -RA OVC030 05/05 Q1012

22 april 2024

Tijd Code Weer Temp. Zicht Plafond Wind METAR/SPECI
23:50
M
5 °C 10 km+ 2.000 ft Var Var 2 kt METAR LIMF 222150Z VRB02KT 9999 -RA OVC020 05/04 Q1013
23:20
M
5 °C 10 km+ 2.500 ft 290° 290° 5 kt METAR LIMF 222120Z 29005KT 9999 -RA OVC025 05/05 Q1012
22:50
M
6 °C 10 km+ 2.500 ft 280° 280° 5 kt METAR LIMF 222050Z 28005KT 9999 -RA OVC025 06/05 Q1013
22:20
V
6 °C 10 km+ 4.000 ft 280° 280° 5 kt METAR LIMF 222020Z 28005KT 9999 -RA SCT020 OVC040 06/06 Q1013
21:50
V
6 °C 10 km+ 4.000 ft 280° 280° 4 kt METAR LIMF 221950Z 28004KT 9999 -RA SCT030 OVC040 06/05 Q1013
21:20
V
5 °C 10 km+ 4.000 ft 270° 270° 2 kt METAR LIMF 221920Z 27002KT 9999 -RA SCT020 OVC040 05/05 Q1013
20:50
V
5 °C 10 km+ 4.000 ft Var Var 2 kt METAR LIMF 221850Z VRB02KT 9999 -RA SCT020 OVC040 05/05 Q1012
20:20
V
5 °C 10 km+ 4.000 ft Var Var 2 kt METAR LIMF 221820Z VRB02KT 9999 -RA SCT020 OVC040 05/04 Q1012
19:50
V
6 °C 10 km+ 5.000 ft 120° 120° 4 kt METAR LIMF 221750Z 12004KT 9999 -RA FEW010 OVC050 06/05 Q1012
19:20
V
6 °C 10 km+ 4.000 ft 080° 080° 5 kt METAR LIMF 221720Z 08005KT 050V110 9999 -RA SCT007 OVC040 06/05 Q1012
18:50
M
6 °C 10 km+ 1.400 ft 090° 090° 5 kt METAR LIMF 221650Z 09005KT 9999 -RA SCT007 BKN014 OVC035 06/04 Q1012
18:20
M
7 °C 10 km+ 1.400 ft 100° 100° 4 kt METAR LIMF 221620Z 10004KT 9999 -RA SCT007 BKN014 OVC035 07/05 Q1012
17:50
M
7 °C 10 km+ 1.400 ft 100° 100° 4 kt METAR LIMF 221550Z 10004KT 070V130 9999 -RA FEW007 BKN014 OVC035 07/05 Q1012
17:20
M
7 °C 10 km+ 1.400 ft 100° 100° 3 kt METAR LIMF 221520Z 10003KT 050V160 9999 -RA FEW007 BKN014 OVC030 07/04 Q1012
16:50
M
7 °C 10 km+ 1.500 ft Var Var 2 kt METAR LIMF 221450Z VRB02KT 9999 -RA BKN015 OVC035 07/04 Q1012
16:20
M
7 °C 10 km+ 1.500 ft Var Var 2 kt METAR LIMF 221420Z VRB02KT 9999 -RA BKN015 OVC035 07/04 Q1013
15:50
M
7 °C 10 km+ 1.500 ft Var Var 2 kt METAR LIMF 221350Z VRB02KT 9999 -RA BKN015 OVC035 07/05 Q1013
15:20
M
6 °C 10 km+ 1.500 ft Var Var 2 kt METAR LIMF 221320Z VRB02KT 9999 -RA BKN015 OVC035 06/04 Q1013
14:50
M
6 °C 10 km+ 1.500 ft 260° 260° 3 kt METAR LIMF 221250Z 26003KT 190V330 9999 -RA BKN015 OVC030 06/05 Q1013
14:20
M
6 °C 10 km+ 1.200 ft Var Var 2 kt METAR LIMF 221220Z VRB02KT 9999 -RA BKN012 OVC020 06/04 Q1013
13:50
M
6 °C 10 km+ 1.200 ft Var Var 2 kt METAR LIMF 221150Z VRB02KT 9999 -RA BKN012 OVC020 06/03 Q1013
13:20
M
5 °C 10 km+ 1.200 ft Var Var 2 kt METAR LIMF 221120Z VRB02KT 9999 -RA BKN012 OVC020 05/03 Q1013
12:50
M
5 °C 10 km+ 1.200 ft 070° 070° 3 kt METAR LIMF 221050Z 07003KT 010V120 9999 -RA BKN012 OVC020 05/03 Q1014
12:20
M
5 °C 10 km+ 2.000 ft 080° 080° 4 kt METAR LIMF 221020Z 08004KT 040V120 9999 -RA SCT010 OVC020 05/04 Q1014
11:50
M
5 °C 10 km+ 3.000 ft 100° 100° 7 kt METAR LIMF 220950Z 10007KT 9999 -RA SCT020 OVC030 05/04 Q1013
11:20
M
5 °C 10 km+ 3.000 ft 040° 040° 5 kt METAR LIMF 220920Z 04005KT 360V060 9999 -RA SCT015 OVC030 05/03 Q1013
10:50
M
5 °C 7 km 3.000 ft 050° 050° 6 kt METAR LIMF 220850Z 05006KT 020V090 7000 -RA SCT015 OVC030 05/03 Q1013
10:20
M
5 °C 8 km 1.700 ft 090° 090° 5 kt METAR LIMF 220820Z 09005KT 8000 -RA BKN017 OVC030 05/03 Q1013
09:50
M
5 °C 10 km+ 1.700 ft 090° 090° 3 kt METAR LIMF 220750Z 09003KT 040V130 9999 -RA BKN017 OVC030 05/03 Q1013
09:20
M
5 °C 10 km+ 3.000 ft 080° 080° 3 kt METAR LIMF 220720Z 08003KT 050V110 9999 -RA SCT020 OVC030 05/02 Q1013
08:50
M
6 °C 10 km+ 3.000 ft 320° 320° 4 kt METAR LIMF 220650Z 32004KT 280V010 9999 -RA BKN030 OVC050 06/03 Q1013
08:20
M
5 °C 10 km+ 2.700 ft 280° 280° 4 kt METAR LIMF 220620Z 28004KT 250V310 9999 -RA BKN027 OVC050 05/03 Q1013
07:50
M
5 °C 10 km+ 3.000 ft Var Var 1 kt METAR LIMF 220550Z VRB01KT 9999 -RA BKN030 OVC050 05/02 Q1013
07:20
M
5 °C 10 km+ 2.500 ft Var Var 2 kt METAR LIMF 220520Z VRB02KT 9999 -RA BKN025 BKN055 05/03 Q1013
06:50
M
5 °C 10 km+ 2.500 ft 080° 080° 4 kt METAR LIMF 220450Z 08004KT 9999 -RA BKN025 BKN055 05/03 Q1013
06:20
M
5 °C 10 km+ 2.500 ft 060° 060° 3 kt METAR LIMF 220420Z 06003KT 9999 -RA BKN025 BKN070 05/02 Q1013
05:50
V
5 °C 10 km+ 4.000 ft 080° 080° 5 kt METAR LIMF 220350Z 08005KT 9999 BKN040 BKN075 05/02 Q1013
05:20
V
5 °C 10 km+ 4.000 ft 110° 110° 7 kt METAR LIMF 220320Z 11007KT 9999 BKN040 BKN075 05/02 Q1013
04:50
V
6 °C 10 km+ 4.000 ft 100° 100° 8 kt METAR LIMF 220250Z 10008KT 9999 BKN040 BKN120 06/03 Q1013
04:20
V
6 °C 10 km+ 4.000 ft 070° 070° 7 kt METAR LIMF 220220Z 07007KT 9999 BKN040 BKN120 06/03 Q1013
03:50
V
7 °C 10 km+ 12.000 ft 340° 340° 4 kt METAR LIMF 220150Z 34004KT 9999 SCT060 BKN120 07/03 Q1013
03:20
V
7 °C 10 km+ 12.000 ft 010° 010° 4 kt METAR LIMF 220120Z 01004KT 9999 SCT040 BKN120 07/03 Q1013
02:50
V
7 °C 10 km+ 4.000 ft 350° 350° 5 kt METAR LIMF 220050Z 35005KT 9999 BKN040 BKN120 07/03 Q1013
02:20
V
7 °C 10 km+ 4.000 ft 340° 340° 6 kt METAR LIMF 220020Z 34006KT 9999 BKN040 BKN120 07/03 Q1014
01:50
V
7 °C 10 km+ 12.000 ft 330° 330° 5 kt METAR LIMF 212350Z 33005KT 9999 SCT035 BKN120 07/02 Q1014
01:20
V
7 °C 10 km+ 12.000 ft 300° 300° 8 kt METAR LIMF 212320Z 30008KT 9999 SCT040 BKN120 07/02 Q1014
00:50
V
7 °C 10 km+ 10.000 ft 320° 320° 8 kt METAR LIMF 212250Z 32008KT 9999 SCT040 BKN100 07/02 Q1014
00:20
V
7 °C 10 km+ 4.000 ft 310° 310° 9 kt METAR LIMF 212220Z 31009KT 9999 BKN040 BKN100 07/03 Q1014

21 april 2024

Tijd Code Weer Temp. Zicht Plafond Wind METAR/SPECI
23:50
V
8 °C 10 km+ 5.000 ft 300° 300° 5 kt METAR LIMF 212150Z 30005KT 9999 BKN050 BKN100 08/03 Q1014
23:20
V
8 °C 10 km+ 5.000 ft Var Var 4 kt METAR LIMF 212120Z VRB04KT 9999 -RA FEW030 BKN050 BKN085 08/01 Q1013 RESHRA
22:50
V
8 °C 8 km 4.000 ft 090° 090° 13 kt METAR LIMF 212050Z 09013KT 060V120 8000 SHRA SCT025 BKN040 BKN100 08/02 Q1014
22:20
V
10 °C 10 km+ 6.500 ft 030° 030° 4 kt METAR LIMF 212020Z 03004KT 360V070 9999 BKN065 BKN100 10/M00 Q1013
21:50
V
10 °C 10 km+ 7.000 ft 350° 350° 7 kt METAR LIMF 211950Z 35007KT 9999 -DZ BKN070 BKN100 10/M00 Q1012
21:20
V
11 °C 10 km+ 7.000 ft 360° 360° 7 kt METAR LIMF 211920Z 36007KT 9999 BKN070 BKN100 11/M01 Q1011
20:50
V
11 °C 10 km+ 9.000 ft 020° 020° 5 kt METAR LIMF 211850Z 02005KT 9999 SCT065 BKN090 11/M00 Q1011
20:20
V
12 °C 10 km+ 9.000 ft 020° 020° 6 kt METAR LIMF 211820Z 02006KT 9999 SCT070 BKN090 12/M01 Q1011
19:50
V
11 °C 10 km+ 7.000 ft 080° 080° 5 kt METAR LIMF 211750Z 08005KT 040V120 9999 SCT030CB BKN070 11/M00 Q1010
19:20
V
12 °C 10 km+ 5.000 ft Var Var 6 - 20 kt METAR LIMF 211720Z VRB06G20KT 9999 -RA SCT030CB BKN050 12/M01 Q1010
18:50
V
13 °C 10 km+ 6.000 ft 090° 090° 9 kt METAR LIMF 211650Z 09009KT 070V170 9999 SCT030CB BKN060 13/M02 Q1010
18:20
V
13 °C 10 km+ 6.000 ft 030° 030° 6 kt METAR LIMF 211620Z 03006KT 9999 SCT030CB BKN060 13/M01 Q1010
17:50
V
13 °C 10 km+ - 020° 020° 9 kt METAR LIMF 211550Z 02009KT 9999 SCT060 13/M01 Q1010
17:20
V
14 °C 10 km+ - 030° 030° 10 kt METAR LIMF 211520Z 03010KT 360V060 9999 SCT050 14/M02 Q1010
16:50
V
14 °C 10 km+ - 040° 040° 11 kt METAR LIMF 211450Z 04011KT 9999 SCT050 14/M02 Q1009
16:20
V
17 °C 10 km+ - 070° 070° 11 kt METAR LIMF 211420Z 07011KT 040V100 CAVOK 17/M03 Q1009
15:50
V
16 °C 10 km+ - 080° 080° 6 kt METAR LIMF 211350Z 08006KT 030V120 CAVOK 16/M04 Q1009
15:20
V
16 °C 10 km+ - Var Var 3 kt METAR LIMF 211320Z VRB03KT CAVOK 16/M05 Q1010
14:50
V
16 °C 10 km+ - Var Var 3 kt METAR LIMF 211250Z VRB03KT CAVOK 16/M06 Q1010
14:20
V
16 °C 10 km+ - 110° 110° 3 kt METAR LIMF 211220Z 11003KT 030V190 CAVOK 16/M04 Q1010
13:50
V
15 °C 10 km+ - 120° 120° 5 kt METAR LIMF 211150Z 12005KT 060V210 CAVOK 15/M04 Q1011
13:20
V
15 °C 10 km+ - 190° 190° 5 kt METAR LIMF 211120Z 19005KT 120V240 CAVOK 15/M05 Q1011
12:50
V
14 °C 10 km+ - 160° 160° 7 kt METAR LIMF 211050Z 16007KT 100V200 CAVOK 14/M05 Q1011
12:20
V
14 °C 10 km+ - 130° 130° 6 kt METAR LIMF 211020Z 13006KT 080V190 CAVOK 14/M05 Q1012
11:50
V
14 °C 10 km+ - 140° 140° 6 kt METAR LIMF 210950Z 14006KT 110V170 CAVOK 14/M05 Q1012
11:20
V
13 °C 10 km+ - 160° 160° 4 kt METAR LIMF 210920Z 16004KT 100V210 CAVOK 13/M05 Q1013
10:50
V
13 °C 10 km+ - Var Var 3 kt METAR LIMF 210850Z VRB03KT CAVOK 13/M04 Q1013
10:20
V
13 °C 10 km+ - 160° 160° 3 kt METAR LIMF 210820Z 16003KT 090V230 CAVOK 13/M02 Q1013
09:50
V
11 °C 10 km+ - 220° 220° 3 kt METAR LIMF 210750Z 22003KT 170V270 CAVOK 11/M03 Q1013
09:20
V
10 °C 10 km+ - Var Var 2 kt METAR LIMF 210720Z VRB02KT CAVOK 10/M04 Q1014
08:50
V
9 °C 10 km+ - Var Var 2 kt METAR LIMF 210650Z VRB02KT CAVOK 09/M03 Q1014
08:20
V
7 °C 10 km+ - Var Var 1 kt METAR LIMF 210620Z VRB01KT CAVOK 07/M02 Q1014
07:50
V
4 °C 10 km+ - Var Var 1 kt METAR LIMF 210550Z VRB01KT CAVOK 04/M02 Q1014
07:20
V
3 °C 10 km+ - Var Var 4 kt METAR LIMF 210520Z VRB04KT CAVOK 03/M04 Q1014
06:50
V
4 °C 10 km+ - 290° 290° 5 kt METAR LIMF 210450Z 29005KT CAVOK 04/M04 Q1014
06:20
V
4 °C 10 km+ - 300° 300° 4 kt METAR LIMF 210420Z 30004KT CAVOK 04/M04 Q1014
05:50
V
5 °C 10 km+ - Var Var 2 kt METAR LIMF 210350Z VRB02KT CAVOK 05/M04 Q1015
05:20
V
4 °C 10 km+ - Var Var 2 kt METAR LIMF 210320Z VRB02KT CAVOK 04/M04 Q1015
04:50
V
4 °C 10 km+ - 290° 290° 7 kt METAR LIMF 210250Z 29007KT CAVOK 04/M04 Q1015
04:20
V
5 °C 10 km+ - 280° 280° 5 kt METAR LIMF 210220Z 28005KT CAVOK 05/M04 Q1015
03:50
V
5 °C 10 km+ - 300° 300° 4 kt METAR LIMF 210150Z 30004KT 280V340 CAVOK 05/M04 Q1015
03:20
V
6 °C 10 km+ - 280° 280° 7 kt METAR LIMF 210120Z 28007KT CAVOK 06/M03 Q1016
02:50
V
6 °C 10 km+ - 280° 280° 6 kt METAR LIMF 210050Z 28006KT CAVOK 06/M03 Q1016
02:20
V
6 °C 10 km+ - Var Var 2 kt METAR LIMF 210020Z VRB02KT CAVOK 06/M04 Q1016
01:50
V
8 °C 10 km+ - 260° 260° 3 kt METAR LIMF 202350Z 26003KT CAVOK 08/M04 Q1016
01:20
V
7 °C 10 km+ - 290° 290° 4 kt METAR LIMF 202320Z 29004KT CAVOK 07/M04 Q1016
00:50
V
7 °C 10 km+ - 330° 330° 3 kt METAR LIMF 202250Z 33003KT 290V360 CAVOK 07/M04 Q1016
00:20
V
8 °C 10 km+ - 250° 250° 4 kt METAR LIMF 202220Z 25004KT CAVOK 08/M04 Q1016

20 april 2024

Tijd Code Weer Temp. Zicht Plafond Wind METAR/SPECI
23:50
V
10 °C 10 km+ - Var Var 2 kt METAR LIMF 202150Z VRB02KT CAVOK 10/M07 Q1015
23:20
V
10 °C 10 km+ - 190° 190° 6 kt METAR LIMF 202120Z 19006KT CAVOK 10/M05 Q1015
22:50
V
11 °C 10 km+ - 050° 050° 6 kt METAR LIMF 202050Z 05006KT 030V090 CAVOK 11/M07 Q1015
22:20
V
10 °C 10 km+ - 090° 090° 4 kt METAR LIMF 202020Z 09004KT 070V150 CAVOK 10/M05 Q1014
21:50
V
13 °C 10 km+ - 270° 270° 4 kt METAR LIMF 201950Z 27004KT 210V320 CAVOK 13/M07 Q1014
21:20
V
14 °C 10 km+ - Var Var 4 kt METAR LIMF 201920Z VRB04KT CAVOK 14/M09 Q1013
20:50
V
14 °C 10 km+ - 120° 120° 5 kt METAR LIMF 201850Z 12005KT 090V160 9999 FEW100 14/M08 Q1012
20:20
V
13 °C 10 km+ - 070° 070° 4 kt METAR LIMF 201820Z 07004KT 300V110 9999 FEW100 13/M06 Q1012
19:50
V
15 °C 10 km+ - 090° 090° 6 kt METAR LIMF 201750Z 09006KT 9999 FEW100 15/M06 Q1012
19:20
V
16 °C 10 km+ - 090° 090° 5 kt METAR LIMF 201720Z 09005KT 9999 FEW100 16/M04 Q1011
18:50
V
15 °C 10 km+ - 080° 080° 5 kt METAR LIMF 201650Z 08005KT 9999 FEW110 15/M04 Q1011
18:20
V
15 °C 10 km+ - 070° 070° 8 kt METAR LIMF 201620Z 07008KT 9999 SCT110 15/M04 Q1011
17:50
V
17 °C 10 km+ - 080° 080° 8 kt METAR LIMF 201550Z 08008KT 9999 SCT110 17/M05 Q1011
17:20
V
17 °C 10 km+ - 090° 090° 7 kt METAR LIMF 201520Z 09007KT 060V130 9999 SCT110 17/M05 Q1011
16:50
V
17 °C 10 km+ 11.000 ft 110° 110° 7 kt METAR LIMF 201450Z 11007KT 080V140 9999 BKN110 17/M05 Q1011
16:20
V
18 °C 10 km+ - 080° 080° 8 kt METAR LIMF 201420Z 08008KT 040V130 9999 FEW100 18/M05 Q1011
15:50
V
18 °C 10 km+ - 100° 100° 9 kt METAR LIMF 201350Z 10009KT 060V130 9999 SCT100 18/M04 Q1011
15:20
V
18 °C 10 km+ - 080° 080° 9 kt METAR LIMF 201320Z 08009KT 040V110 9999 FEW050 SCT090 18/M03 Q1010
14:50
V
18 °C 10 km+ - 070° 070° 12 kt METAR LIMF 201250Z 07012KT 9999 FEW030 SCT060 18/M02 Q1010
14:20
V
18 °C 10 km+ - 060° 060° 12 kt METAR LIMF 201220Z 06012KT 030V110 9999 FEW035 SCT060 18/M06 Q1010
13:50
V
18 °C 10 km+ - 050° 050° 9 kt METAR LIMF 201150Z 05009KT 010V120 9999 SCT100 18/M06 Q1010
13:20
V
18 °C 10 km+ - 040° 040° 9 - 19 kt METAR LIMF 201120Z 04009G19KT 9999 SCT100 18/M07 Q1010
12:50
V
18 °C 10 km+ - 360° 360° 11 - 24 kt METAR LIMF 201050Z 36011G24KT 330V030 9999 SCT100 18/M06 Q1010
12:20
V
17 °C 10 km+ - 310° 310° 10 kt METAR LIMF 201020Z 31010KT 280V340 9999 FEW100 17/M07 Q1010
11:50
V
17 °C 10 km+ - 040° 040° 6 kt METAR LIMF 200950Z 04006KT 320V120 CAVOK 17/M06 Q1009
11:20
V
17 °C 10 km+ - 080° 080° 8 kt METAR LIMF 200920Z 08008KT 040V120 CAVOK 17/M08 Q1009
10:50
V
17 °C 10 km+ - Var Var 4 kt METAR LIMF 200850Z VRB04KT CAVOK 17/M04 Q1009
10:20
V
16 °C 10 km+ - 120° 120° 4 kt METAR LIMF 200820Z 12004KT 080V190 CAVOK 16/M02 Q1009
09:50
V
15 °C 10 km+ - Var Var 3 kt METAR LIMF 200750Z VRB03KT CAVOK 15/00 Q1009
09:20
V
13 °C 10 km+ - 140° 140° 3 kt METAR LIMF 200720Z 14003KT 070V200 CAVOK 13/04 Q1009
08:50
V
12 °C 10 km+ - Var Var 3 kt METAR LIMF 200650Z VRB03KT CAVOK 12/04 Q1009
08:20
V
8 °C 10 km+ - Var Var 3 kt METAR LIMF 200620Z VRB03KT CAVOK 08/04 Q1009
07:50
V
8 °C 10 km+ - 300° 300° 4 kt METAR LIMF 200550Z 30004KT 270V330 CAVOK 08/03 Q1009
Wijziging doorgeven